Lake Arrowhead, Georgia
Current Conditions -  °F | °C
As of 4:35 AM on Saturday 20 Dec 2014 (Local Time) from KCNI Reporting Station
Moderate Rain Moderate Rain  
Wind Chill: 41°   Ceiling: 5000
Heat Index: 41°   Visibility: 5mi
Dew Point: 37°   Wind: 0mph
Humidity: 87%   Direction: NA
Pressure: 30.11"   Gusts: NA
Location:  34.3309°N, 84.5894°W
Report Text: KCNI 200935Z AUTO 00000KT 5SM RA OVC050 05/03 A3011 RMK AO2
Loading
Personal Weather Stations






























Interactive Weather Map New forecast layout! Learn more

10-Day Weather Forecast

Advertisements
Track Severe Weather on mobile